Time;durP1;ratioP1;P1;durP2;ratioP2;P2;SDS_P1;SDS_P2;PMS_P1;PMS_P2;Temp;Humidity;BMP_temperature;BMP_pressure;BME280_temperature;BME280_humidity;BME280_pressure;Samples;Min_cycle;Max_cycle;Signal;HPM_P1;HPM_P2
2023/04/30 00:00:41;;;;;;;27.98;25.02;;;;;;;16.22;73.64;101022.53;4947698;28;20663;-81
2023/04/30 00:03:08;;;;;;;37.28;26.10;;;;;;;16.41;74.14;101069.66;4935535;28;20058;-81
2023/04/30 00:05:37;;;;;;;30.88;25.20;;;;;;;16.44;73.77;101072.81;4928388;28;20226;-80
2023/04/30 00:08:07;;;;;;;33.47;26.25;;;;;;;16.42;74.21;101072.16;4920100;28;20322;-80
2023/04/30 00:10:33;;;;;;;28.80;23.60;;;;;;;15.70;73.99;100961.09;4919999;28;20519;-80
2023/04/30 00:13:05;;;;;;;30.08;22.95;;;;;;;16.29;74.21;101074.47;4902840;28;20316;-80
2023/04/30 00:15:44;;;;;;;26.92;22.40;;;;;;;16.14;74.38;101060.00;4888788;28;20395;-80
2023/04/30 00:18:11;;;;;;;33.15;23.58;;;;;;;16.14;75.00;101063.53;4918123;28;20051;-81
2023/04/30 00:20:38;;;;;;;27.88;22.60;;;;;;;16.17;74.50;101067.72;4923152;29;20078;-81
2023/04/30 00:23:05;;;;;;;29.02;22.70;;;;;;;15.96;74.89;101044.84;4901696;29;20326;-79
2023/04/30 00:25:35;;;;;;;28.00;22.92;;;;;;;15.86;74.88;101033.44;4906929;29;20066;-80
2023/04/30 00:28:08;;;;;;;30.95;22.95;;;;;;;16.05;74.93;101063.66;4906187;29;20048;-81
2023/04/30 00:30:38;;;;;;;33.17;23.00;;;;;;;16.00;75.06;101072.16;4915171;29;20066;-80
2023/04/30 00:33:04;;;;;;;31.35;22.42;;;;;;;15.59;75.69;101015.72;4916182;29;20413;-81
2023/04/30 00:35:34;;;;;;;28.08;22.77;;;;;;;15.92;75.27;101064.94;4919482;29;20077;-80
2023/04/30 00:38:02;;;;;;;28.48;22.08;;;;;;;15.92;75.35;101053.38;4919537;29;20043;-80
2023/04/30 00:40:29;;;;;;;32.20;21.20;;;;;;;15.21;75.19;100936.75;4915766;28;20453;-80
2023/04/30 00:42:56;;;;;;;25.48;20.83;;;;;;;15.87;75.33;101061.88;4935036;28;20229;-81
2023/04/30 00:45:25;;;;;;;31.38;20.48;;;;;;;15.72;75.48;101037.53;4926203;28;20070;-83
2023/04/30 00:47:52;;;;;;;26.52;21.38;;;;;;;15.65;75.37;101035.63;4937051;28;20101;-81
2023/04/30 00:50:20;;;;;;;28.48;21.45;;;;;;;15.74;75.63;101045.44;4914688;28;20054;-81
2023/04/30 00:52:46;;;;;;;28.70;20.92;;;;;;;15.79;75.10;101041.25;4940160;28;20042;-79
2023/04/30 00:55:14;;;;;;;30.73;21.77;;;;;;;15.49;75.77;101010.47;4928212;28;20070;-82
2023/04/30 00:57:46;;;;;;;32.30;22.63;;;;;;;15.52;75.75;101036.91;4874183;28;20051;-81
2023/04/30 01:00:23;;;;;;;26.17;21.33;;;;;;;15.40;76.08;101011.41;4877235;28;20281;-81
2023/04/30 01:02:51;;;;;;;29.70;21.23;;;;;;;15.62;76.16;101057.38;4927599;28;20417;-83
2023/04/30 01:05:22;;;;;;;26.38;21.65;;;;;;;15.64;76.05;101044.69;4902293;28;20623;-82
2023/04/30 01:07:49;;;;;;;27.13;23.13;;;;;;;15.30;75.90;100989.28;4879749;28;20656;-82
2023/04/30 01:10:46;;;;;;;28.58;21.95;;;;;;;15.59;76.12;101048.66;4893144;28;20042;-81
2023/04/30 01:13:29;;;;;;;31.25;21.48;;;;;;;15.52;76.31;101049.47;4898123;28;20066;-82
2023/04/30 01:16:06;;;;;;;23.30;20.40;;;;;;;15.60;76.45;101060.19;4899469;28;20407;-80
2023/04/30 01:19:01;;;;;;;24.92;21.98;;;;;;;15.46;75.98;101042.91;4925787;28;20141;-82
2023/04/30 01:21:45;;;;;;;25.85;21.63;;;;;;;15.46;76.30;101042.03;4921388;28;20046;-84
2023/04/30 01:24:37;;;;;;;25.92;22.70;;;;;;;15.54;76.38;101061.69;4936584;28;20145;-82
2023/04/30 01:27:13;;;;;;;27.10;22.80;;;;;;;15.51;76.60;101067.34;4939898;28;20049;-81
2023/04/30 01:29:42;;;;;;;32.85;23.60;;;;;;;15.52;76.93;101066.34;4915880;28;20437;-82
2023/04/30 01:32:12;;;;;;;27.88;23.35;;;;;;;15.39;76.65;101052.56;4955648;28;20229;-83
2023/04/30 01:34:44;;;;;;;26.80;22.80;;;;;;;15.48;76.50;101054.25;4912233;28;20320;-84
2023/04/30 01:37:30;;;;;;;27.85;23.65;;;;;;;14.23;76.23;100832.66;4935779;28;20046;-82
2023/04/30 01:40:13;;;;;;;32.67;23.80;;;;;;;15.54;76.08;101050.97;4928230;28;20062;-84
2023/04/30 01:43:06;;;;;;;30.85;23.95;;;;;;;15.65;76.24;101070.44;4927308;28;20050;-82
2023/04/30 01:46:26;;;;;;;25.35;22.35;;;;;;;15.23;75.98;101015.00;4975469;28;20046;-83
2023/04/30 01:49:05;;;;;;;28.85;22.27;;;;;;;15.38;76.17;101058.88;4925330;28;20444;-82
2023/04/30 01:51:45;;;;;;;27.02;22.40;;;;;;;15.17;76.34;101038.69;4919774;28;20571;-84
2023/04/30 01:54:58;;;;;;;27.92;24.17;;;;;;;15.22;76.35;101050.72;4924370;28;20055;-82
2023/04/30 01:57:30;;;;;;;;;;;;;;;15.46;75.74;101099.09;4876067;28;20596;-81
2023/04/30 01:59:57;;;;;;;25.95;20.33;;;;;;;14.69;75.48;100989.19;4875347;28;19973;-83
2023/04/30 02:02:25;;;;;;;23.25;20.20;;;;;;;14.77;75.69;100992.91;4894163;28;20505;-82
2023/04/30 02:04:52;;;;;;;24.23;20.10;;;;;;;15.20;75.66;101064.28;4924386;28;20554;-82
2023/04/30 02:07:45;;;;;;;27.05;19.33;;;;;;;15.34;75.55;101093.16;4898283;28;20050;-82
2023/04/30 02:10:12;;;;;;;28.95;19.85;;;;;;;15.31;75.99;101097.94;4935974;28;20332;-83
2023/04/30 02:12:41;;;;;;;23.65;19.90;;;;;;;15.10;75.93;101069.72;4939865;28;20416;-83
2023/04/30 02:15:09;;;;;;;29.60;21.38;;;;;;;15.25;76.03;101104.78;4954812;28;20636;-83
2023/04/30 02:17:35;;;;;;;25.90;20.80;;;;;;;14.96;76.34;101056.91;4958772;28;20046;-83
2023/04/30 02:20:03;;;;;;;27.50;21.15;;;;;;;14.87;75.99;101036.44;4947063;28;20050;-83
2023/04/30 02:22:30;;;;;;;23.92;18.42;;;;;;;14.44;76.44;100995.25;4932036;28;20498;-81
2023/04/30 02:24:57;;;;;;;27.90;21.73;;;;;;;15.01;76.66;101084.00;4916420;28;20046;-82
2023/04/30 02:27:29;;;;;;;25.27;19.55;;;;;;;15.09;76.69;101094.75;4893585;28;20362;-82
2023/04/30 02:29:56;;;;;;;25.23;21.13;;;;;;;15.06;77.50;101095.06;4911756;28;20389;-80
2023/04/30 02:32:26;;;;;;;26.88;20.55;;;;;;;14.77;77.97;101046.38;4905147;28;20185;-82
2023/04/30 02:34:56;;;;;;;25.63;22.45;;;;;;;15.06;78.06;101095.06;4908769;28;20401;-80
2023/04/30 02:37:30;;;;;;;25.70;21.05;;;;;;;15.16;77.50;101095.00;4914047;28;20395;-81
2023/04/30 02:39:56;;;;;;;29.25;20.38;;;;;;;15.13;77.76;101095.31;4936221;28;20078;-82
2023/04/30 02:42:28;;;;;;;29.33;22.30;;;;;;;15.04;78.34;101099.72;4931424;28;20062;-81
2023/04/30 02:45:00;;;;;;;25.95;21.40;;;;;;;14.39;78.58;100989.53;4939477;28;20049;-81
2023/04/30 02:47:32;;;;;;;27.95;22.95;;;;;;;15.00;78.17;101074.31;4943497;28;20046;-82
2023/04/30 02:50:02;;;;;;;29.17;22.50;;;;;;;14.72;78.47;101031.63;4926093;28;20160;-82
2023/04/30 02:52:33;;;;;;;25.42;22.67;;;;;;;14.96;78.55;101062.25;4914772;28;20177;-82
2023/04/30 02:55:06;;;;;;;28.08;22.02;;;;;;;15.12;78.81;101097.16;4924355;28;20050;-81
2023/04/30 02:57:36;;;;;;;28.75;23.35;;;;;;;15.11;78.99;101092.78;4919420;28;20270;-82
2023/04/30 03:00:16;;;;;;;27.00;23.85;;;;;;;15.07;79.32;101096.78;4914040;28;20058;-81
2023/04/30 03:02:43;;;;;;;27.65;23.15;;;;;;;15.13;79.48;101109.50;4913835;28;20557;-81
2023/04/30 03:05:19;;;;;;;33.22;23.50;;;;;;;15.03;79.32;101078.53;4898004;28;20544;-82
2023/04/30 03:07:46;;;;;;;26.00;22.83;;;;;;;14.84;79.06;101050.94;4906415;28;20105;-82
2023/04/30 03:10:13;;;;;;;31.20;24.17;;;;;;;15.16;79.37;101093.16;4905675;28;20051;-82
2023/04/30 03:12:40;;;;;;;28.65;23.75;;;;;;;14.44;79.03;100971.19;4919499;28;20058;-82
2023/04/30 03:15:07;;;;;;;31.40;24.58;;;;;;;15.11;78.42;101068.72;4950484;28;20046;-81
2023/04/30 03:17:34;;;;;;;27.80;22.80;;;;;;;15.25;78.51;101087.91;4910330;28;20043;-82
2023/04/30 03:20:06;;;;;;;28.02;23.33;;;;;;;15.28;78.46;101092.94;4895531;28;20094;-81
2023/04/30 03:22:39;;;;;;;27.27;21.85;;;;;;;15.30;78.22;101096.28;4919502;28;20289;-80
2023/04/30 03:25:06;;;;;;;31.02;22.98;;;;;;;15.37;77.52;101098.19;4894897;28;20289;-83
2023/04/30 03:27:33;;;;;;;27.20;22.35;;;;;;;14.57;78.12;100974.38;4908579;28;20106;-81
2023/04/30 03:30:01;;;;;;;25.52;22.90;;;;;;;15.23;78.20;101084.53;4903707;28;20051;-82
2023/04/30 03:32:27;;;;;;;31.17;23.42;;;;;;;15.34;78.26;101097.63;4905126;28;20050;-82
2023/04/30 03:34:55;;;;;;;30.35;21.88;;;;;;;15.33;78.01;101102.16;4903951;28;20051;-81
2023/04/30 03:37:26;;;;;;;28.25;23.52;;;;;;;15.25;78.36;101090.56;4895562;28;20312;-82
2023/04/30 03:39:58;;;;;;;31.75;24.02;;;;;;;15.03;78.56;101070.50;4882618;28;20207;-81
2023/04/30 03:42:39;;;;;;;30.70;24.30;;;;;;;14.81;79.07;101045.06;4869471;28;20758;-81
2023/04/30 03:45:10;;;;;;;31.60;24.58;;;;;;;15.09;79.13;101070.69;4927588;28;20059;-81
2023/04/30 03:47:42;;;;;;;33.85;26.13;;;;;;;15.12;78.81;101078.44;4950688;28;20513;-82
2023/04/30 03:50:09;;;;;;;32.13;24.83;;;;;;;14.77;78.47;101008.94;4921527;28;20074;-80
2023/04/30 03:52:36;;;;;;;34.67;25.38;;;;;;;15.26;78.78;101081.53;4925830;28;20047;-83
2023/04/30 03:55:04;;;;;;;30.13;24.05;;;;;;;15.26;78.76;101077.00;4940602;28;20059;-82
2023/04/30 03:57:31;;;;;;;33.97;24.52;;;;;;;15.43;78.65;101101.22;4932102;28;20058;-81
2023/04/30 03:59:59;;;;;;;33.47;24.90;;;;;;;15.43;78.58;101103.91;4907741;28;20489;-82
2023/04/30 04:02:27;;;;;;;37.45;24.83;;;;;;;15.23;78.97;101074.66;4934936;28;20165;-82
2023/04/30 04:04:53;;;;;;;31.10;24.35;;;;;;;15.28;78.54;101066.19;4932455;28;20548;-80
2023/04/30 04:07:20;;;;;;;37.63;26.25;;;;;;;15.34;78.62;101078.91;4916143;28;20077;-82
2023/04/30 04:09:47;;;;;;;31.70;23.83;;;;;;;15.45;79.11;101110.78;4936546;28;20142;-83
2023/04/30 04:12:14;;;;;;;29.08;23.38;;;;;;;15.26;79.68;101093.06;4917861;28;20339;-82
2023/04/30 04:14:41;;;;;;;31.67;23.95;;;;;;;15.36;80.12;101117.06;4968587;28;20046;-82
2023/04/30 04:17:07;;;;;;;29.83;23.67;;;;;;;15.36;79.84;101122.41;4960585;28;20051;-81
2023/04/30 04:19:34;;;;;;;31.42;23.90;;;;;;;15.39;79.73;101112.25;4928773;28;20254;-81
2023/04/30 04:22:03;;;;;;;33.70;24.52;;;;;;;15.14;80.06;101079.09;4927058;28;20212;-82
2023/04/30 04:24:30;;;;;;;31.10;24.13;;;;;;;15.41;79.93;101119.25;4934843;28;20121;-82
2023/04/30 04:26:57;;;;;;;34.65;23.02;;;;;;;15.47;79.28;101105.28;4935944;28;20056;-82
2023/04/30 04:29:24;;;;;;;30.27;24.30;;;;;;;15.33;79.68;101106.66;4931934;28;20052;-82
2023/04/30 04:31:51;;;;;;;30.67;24.70;;;;;;;15.15;79.68;101085.31;4924650;28;20054;-80
2023/04/30 04:34:18;;;;;;;32.83;24.20;;;;;;;15.02;79.67;101061.63;4930727;28;20420;-82
2023/04/30 04:36:48;;;;;;;32.20;22.65;;;;;;;14.56;79.58;100983.38;4921539;28;20563;-81
2023/04/30 04:39:20;;;;;;;28.70;22.25;;;;;;;15.41;79.30;101138.81;4932231;28;20333;-81
2023/04/30 04:41:54;;;;;;;30.88;23.60;;;;;;;15.31;78.87;101097.94;4947446;28;20340;-82
2023/04/30 04:44:21;;;;;;;35.88;22.65;;;;;;;14.73;79.74;101019.97;4951587;28;20497;-82
2023/04/30 04:46:52;;;;;;;26.08;22.45;;;;;;;15.48;79.50;101131.84;4966185;28;20508;-81
2023/04/30 04:49:19;;;;;;;28.63;22.95;;;;;;;15.52;79.35;101133.25;4925147;28;20073;-81
2023/04/30 04:51:46;;;;;;;34.50;23.38;;;;;;;15.50;79.59;101148.59;4942064;28;20351;-82
2023/04/30 04:54:13;;;;;;;30.77;23.60;;;;;;;14.09;80.04;100917.63;4939037;28;20105;-82
2023/04/30 04:56:40;;;;;;;34.72;24.42;;;;;;;14.30;80.09;100960.06;4926250;28;20137;-82
2023/04/30 04:59:09;;;;;;;31.63;23.25;;;;;;;15.49;80.25;101157.63;4933507;28;20051;-82
2023/04/30 05:01:39;;;;;;;31.40;24.38;;;;;;;15.54;80.21;101143.78;4927328;28;20480;-82
2023/04/30 05:04:08;;;;;;;32.22;25.10;;;;;;;15.29;79.79;101097.25;4927630;28;20493;-82
2023/04/30 05:06:35;;;;;;;36.05;25.40;;;;;;;15.57;80.11;101152.34;4942963;28;20138;-82
2023/04/30 05:09:04;;;;;;;28.67;22.60;;;;;;;15.14;80.11;101076.41;4928009;28;20463;-81
2023/04/30 05:11:30;;;;;;;31.50;23.10;;;;;;;15.54;80.10;101136.59;4916134;28;20899;-82
2023/04/30 05:13:57;;;;;;;33.15;24.92;;;;;;;15.60;80.44;101160.03;4953371;28;20134;-81
2023/04/30 05:16:26;;;;;;;33.08;24.70;;;;;;;15.29;80.28;101100.81;4954839;28;20073;-80
2023/04/30 05:18:57;;;;;;;31.95;24.08;;;;;;;15.60;80.09;101130.59;4936733;28;20078;-82
2023/04/30 05:21:30;;;;;;;32.75;26.00;;;;;;;15.72;79.92;101154.47;4937737;28;20054;-82
2023/04/30 05:24:02;;;;;;;30.73;24.85;;;;;;;15.70;79.96;101135.06;4947866;28;20051;-82
2023/04/30 05:26:30;;;;;;;;;;;;;;;15.98;78.92;101160.69;4928545;28;20497;-83
2023/04/30 05:28:58;;;;;;;30.55;23.95;;;;;;;15.86;79.41;101151.25;4931122;28;20424;-81
2023/04/30 05:31:25;;;;;;;34.78;24.08;;;;;;;15.94;79.45;101167.34;4938485;28;20055;-82
2023/04/30 05:33:52;;;;;;;30.40;24.05;;;;;;;15.94;79.05;101142.41;4932339;28;20129;-80
2023/04/30 05:36:20;;;;;;;35.40;24.67;;;;;;;15.13;79.01;101007.91;4929382;28;20130;-81
2023/04/30 05:38:46;;;;;;;31.92;24.50;;;;;;;15.70;79.59;101113.66;4939774;28;20312;-81
2023/04/30 05:41:13;;;;;;;33.55;25.15;;;;;;;15.79;79.62;101134.13;4941277;28;20078;-82
2023/04/30 05:43:39;;;;;;;34.92;25.52;;;;;;;15.26;79.74;101058.28;4957437;28;20548;-81
2023/04/30 05:46:09;;;;;;;37.25;26.10;;;;;;;15.93;80.01;101160.31;4952055;28;20047;-82
2023/04/30 05:48:37;;;;;;;32.38;24.25;;;;;;;15.82;79.64;101131.13;4925687;28;20055;-82
2023/04/30 05:51:05;;;;;;;31.45;23.48;;;;;;;15.95;80.14;101147.63;4939454;28;20462;-81
2023/04/30 05:53:33;;;;;;;31.08;24.65;;;;;;;16.05;80.14;101155.53;4952726;28;20389;-80
2023/04/30 05:56:06;;;;;;;35.05;25.83;;;;;;;15.76;80.28;101105.00;4936989;28;20134;-82
2023/04/30 05:58:43;;;;;;;31.17;24.35;;;;;;;16.12;80.05;101161.94;4918950;28;20270;-83
2023/04/30 06:01:14;;;;;;;36.78;24.45;;;;;;;16.01;80.09;101138.09;4959339;28;20409;-83
2023/04/30 06:03:46;;;;;;;33.28;24.35;;;;;;;15.94;80.07;101113.78;4937335;28;20062;-82
2023/04/30 06:06:17;;;;;;;33.88;24.33;;;;;;;16.30;79.22;101153.81;4933865;28;20515;-82
2023/04/30 06:08:46;;;;;;;38.85;25.05;;;;;;;16.18;79.83;101147.06;4942089;28;20133;-82
2023/04/30 06:11:14;;;;;;;33.40;24.02;;;;;;;16.22;79.62;101140.41;4920968;28;20050;-82
2023/04/30 06:13:41;;;;;;;33.90;24.60;;;;;;;16.00;79.76;101098.94;4945025;28;20058;-83
2023/04/30 06:16:07;;;;;;;38.17;22.80;;;;;;;16.22;78.71;101105.56;4963369;28;20520;-81
2023/04/30 06:18:38;;;;;;;34.28;22.75;;;;;;;16.49;78.94;101143.88;4913418;28;20258;-81
2023/04/30 06:21:15;;;;;;;33.92;23.52;;;;;;;16.53;79.22;101150.56;4937611;28;20481;-82
2023/04/30 06:23:43;;;;;;;35.42;23.63;;;;;;;16.53;79.05;101150.56;4917885;28;20105;-82
2023/04/30 06:26:10;;;;;;;34.17;23.50;;;;;;;16.82;78.43;101163.59;4923686;28;20513;-79
2023/04/30 06:28:45;;;;;;;32.83;24.90;;;;;;;16.30;78.20;101078.81;4929215;28;20141;-81
2023/04/30 06:31:12;;;;;;;33.03;24.92;;;;;;;16.78;78.01;101160.41;4934352;28;20058;-81
2023/04/30 06:33:39;;;;;;;35.25;25.13;;;;;;;16.76;78.39;101159.69;4930861;28;20796;-80
2023/04/30 06:36:08;;;;;;;41.75;27.02;;;;;;;16.58;78.08;101130.31;4929464;28;20049;-82
2023/04/30 06:38:35;;;;;;;42.35;25.90;;;;;;;16.74;78.24;101142.09;4941229;28;20513;-81
2023/04/30 06:41:02;;;;;;;39.13;26.95;;;;;;;16.82;78.49;101163.59;4955567;28;20047;-81
2023/04/30 06:43:29;;;;;;;39.70;27.80;;;;;;;16.58;78.47;101130.31;4935133;28;20130;-82
2023/04/30 06:46:00;;;;;;;41.72;27.08;;;;;;;16.73;77.38;101122.50;4948843;28;20054;-80
2023/04/30 06:48:30;;;;;;;38.55;27.05;;;;;;;17.00;77.36;101172.34;4933154;28;20055;-80
2023/04/30 06:50:56;;;;;;;40.28;27.60;;;;;;;16.91;77.05;101140.31;4947327;28;20078;-82
2023/04/30 06:53:27;;;;;;;37.30;26.75;;;;;;;16.94;77.04;101151.53;4954580;28;20501;-80
2023/04/30 06:55:55;;;;;;;40.53;25.80;;;;;;;16.90;76.70;101131.44;4942134;28;20157;-81
2023/04/30 06:58:25;;;;;;;43.83;27.23;;;;;;;17.25;75.80;101170.53;4950692;28;20054;-81
2023/04/30 07:00:52;;;;;;;41.17;27.80;;;;;;;16.75;75.53;101098.19;4947201;28;20051;-80
2023/04/30 07:03:20;;;;;;;43.30;25.90;;;;;;;17.06;75.01;101154.75;4949597;28;21540;-79
2023/04/30 07:05:47;;;;;;;33.20;22.10;;;;;;;17.06;73.84;101135.97;4961174;28;20054;-82
2023/04/30 07:08:18;;;;;;;29.63;21.55;;;;;;;16.96;73.45;101137.97;4936868;28;20516;-83
2023/04/30 07:10:52;;;;;;;41.03;25.30;;;;;;;17.15;73.30;101172.53;4941766;28;20280;-82
2023/04/30 07:13:19;;;;;;;32.55;22.45;;;;;;;16.97;73.60;101161.97;4956858;28;20153;-83
2023/04/30 07:15:46;;;;;;;37.97;23.90;;;;;;;16.92;74.11;101150.03;4956880;28;20582;-81
2023/04/30 07:18:16;;;;;;;40.30;25.13;;;;;;;17.12;73.40;101159.47;4927982;28;20246;-82
2023/04/30 07:20:47;;;;;;;32.17;22.80;;;;;;;17.14;73.72;101157.47;4939815;28;20153;-83
2023/04/30 07:23:22;;;;;;;32.17;22.45;;;;;;;17.38;73.63;101202.25;4944458;28;20082;-82
2023/04/30 07:25:48;;;;;;;33.20;22.30;;;;;;;17.34;73.38;101183.97;4944407;28;20055;-82
2023/04/30 07:28:15;;;;;;;29.83;19.95;;;;;;;17.61;72.28;101197.06;4934467;28;20050;-81
2023/04/30 07:30:42;;;;;;;29.90;19.60;;;;;;;17.70;71.83;101195.22;4940769;28;20110;-81
2023/04/30 07:33:12;;;;;;;30.52;20.83;;;;;;;17.67;71.49;101198.22;4941637;28;20130;-79
2023/04/30 07:35:38;;;;;;;30.45;20.42;;;;;;;17.79;70.78;101204.09;4957290;28;20059;-80
2023/04/30 07:38:05;;;;;;;27.70;18.85;;;;;;;17.81;70.27;101197.56;4938803;28;20070;-79
2023/04/30 07:40:32;;;;;;;29.98;19.02;;;;;;;17.63;70.89;101172.75;4954812;28;20077;-80
2023/04/30 07:43:03;;;;;;;28.83;19.52;;;;;;;17.97;70.88;101206.66;4945086;28;20089;-80
2023/04/30 07:45:30;;;;;;;24.50;17.92;;;;;;;17.90;70.26;101195.72;4966398;28;20057;-80
2023/04/30 07:47:57;;;;;;;31.50;18.80;;;;;;;17.91;70.23;101202.78;4942965;28;20320;-80
2023/04/30 07:50:24;;;;;;;27.08;18.42;;;;;;;17.96;70.11;101195.03;4946318;28;20046;-79
2023/04/30 07:52:56;;;;;;;27.75;17.48;;;;;;;18.06;70.06;101189.47;4958254;28;20105;-81
2023/04/30 07:55:24;;;;;;;24.15;18.95;;;;;;;17.96;69.98;101172.72;4959413;28;20327;-79
2023/04/30 07:57:52;;;;;;;27.70;18.33;;;;;;;18.09;70.02;101190.00;4935470;28;20121;-80
2023/04/30 08:00:19;;;;;;;26.02;19.45;;;;;;;17.93;69.29;101150.56;4952546;28;20042;-79
2023/04/30 08:02:47;;;;;;;32.88;19.42;;;;;;;17.83;70.02;101149.91;4930648;28;20137;-81
2023/04/30 08:05:21;;;;;;;25.77;18.58;;;;;;;17.90;70.00;101166.19;4950408;28;20058;-81
2023/04/30 08:07:47;;;;;;;23.23;18.25;;;;;;;17.77;69.98;101147.03;4948107;28;20054;-80
2023/04/30 08:10:14;;;;;;;23.80;17.63;;;;;;;18.24;69.12;101203.56;4944630;28;20066;-79
2023/04/30 08:12:41;;;;;;;22.10;15.60;;;;;;;18.11;68.60;101166.47;4940256;28;20101;-81
2023/04/30 08:15:08;;;;;;;22.38;15.60;;;;;;;18.11;68.42;101163.78;4963806;28;20047;-83
2023/04/30 08:17:37;;;;;;;25.95;17.40;;;;;;;17.80;67.91;101109.97;4962451;28;20105;-82
2023/04/30 08:20:06;;;;;;;24.92;16.85;;;;;;;17.54;67.54;101056.47;4952220;28;20354;-83
2023/04/30 08:22:33;;;;;;;22.67;15.27;;;;;;;18.33;67.06;101156.00;4957244;28;20077;-80
2023/04/30 08:25:01;;;;;;;25.05;18.23;;;;;;;18.40;67.45;101173.13;4934832;28;20043;-81
2023/04/30 08:27:31;;;;;;;24.15;17.27;;;;;;;18.53;67.65;101191.38;4961021;28;20105;-80
2023/04/30 08:29:57;;;;;;;24.00;17.70;;;;;;;18.52;67.14;101158.28;4964798;28;20070;-80
2023/04/30 08:32:24;;;;;;;25.55;18.52;;;;;;;18.92;66.90;101207.50;4967753;28;20129;-80
2023/04/30 08:34:52;;;;;;;26.25;17.23;;;;;;;18.67;66.54;101176.38;4969823;28;20058;-78
2023/04/30 08:37:20;;;;;;;22.67;16.35;;;;;;;18.86;65.98;101181.34;4950198;28;20168;-79
2023/04/30 08:39:46;;;;;;;20.35;15.52;;;;;;;18.78;64.78;101160.69;4942947;28;20137;-80
2023/04/30 08:42:14;;;;;;;23.83;15.43;;;;;;;18.97;65.11;101188.16;4952188;28;20137;-80
2023/04/30 08:44:45;;;;;;;18.98;14.82;;;;;;;19.13;63.84;101188.06;4980488;28;20475;-79
2023/04/30 08:47:15;;;;;;;17.25;14.13;;;;;;;19.00;64.60;101174.34;4942244;28;20430;-78
2023/04/30 08:49:55;;;;;;;19.50;14.65;;;;;;;19.31;63.71;101211.97;4922989;28;20055;-81
2023/04/30 08:52:22;;;;;;;22.30;13.98;;;;;;;19.07;64.35;101182.53;4949417;28;20108;-81
2023/04/30 08:54:50;;;;;;;18.55;12.70;;;;;;;19.29;64.67;101205.09;4981243;28;20051;-78
2023/04/30 08:57:19;;;;;;;17.40;12.60;;;;;;;19.43;63.45;101205.16;4984787;28;20378;-78
2023/04/30 08:59:46;;;;;;;14.38;11.88;;;;;;;19.51;62.81;101196.19;4952398;28;20061;-78
2023/04/30 09:02:20;;;;;;;17.23;11.02;;;;;;;19.57;62.86;101205.41;4960971;28;20086;-79
2023/04/30 09:04:57;;;;;;;;;;;;;;;19.60;62.50;101210.44;4953128;28;20148;-82
2023/04/30 09:07:27;;;;;;;14.73;10.40;;;;;;;19.50;61.86;101164.06;4947855;28;20320;-82
2023/04/30 09:09:59;;;;;;;14.45;10.00;;;;;;;19.80;61.76;101211.63;4938542;28;20070;-81
2023/04/30 09:12:31;;;;;;;13.20;10.90;;;;;;;19.84;62.19;101207.53;4920478;28;20716;-81
2023/04/30 09:15:04;;;;;;;15.07;12.15;;;;;;;19.31;61.28;101093.53;4954952;28;20243;-82
2023/04/30 09:17:35;;;;;;;15.75;12.00;;;;;;;19.83;61.41;101195.13;4936275;28;20250;-83
2023/04/30 09:20:12;;;;;;;15.70;12.13;;;;;;;19.94;61.58;101203.75;4936719;28;20087;-84
2023/04/30 09:22:40;;;;;;;15.55;12.80;;;;;;;19.32;61.64;101081.78;4930302;28;20075;-82
2023/04/30 09:25:10;;;;;;;15.38;12.50;;;;;;;19.63;61.60;101131.94;4922917;28;20159;-82
2023/04/30 09:27:37;;;;;;;18.40;12.15;;;;;;;19.63;62.02;101146.25;4924687;28;20082;-80
2023/04/30 09:30:07;;;;;;;16.83;13.25;;;;;;;20.02;61.84;101199.09;4951339;28;20053;-81
2023/04/30 09:32:35;;;;;;;16.00;13.52;;;;;;;19.93;61.22;101167.91;4944012;28;20101;-81
2023/04/30 09:35:02;;;;;;;20.27;13.93;;;;;;;20.06;60.42;101161.88;4947423;28;20507;-82
2023/04/30 09:37:38;;;;;;;15.77;14.27;;;;;;;20.33;60.10;101199.97;4929966;28;20043;-82
2023/04/30 09:40:09;;;;;;;19.27;15.65;;;;;;;20.15;60.53;101190.41;4914874;28;20043;-80
2023/04/30 09:42:35;;;;;;;18.87;14.53;;;;;;;20.09;60.17;101183.03;4904252;29;20047;-82
2023/04/30 09:45:04;;;;;;;16.00;12.70;;;;;;;20.17;60.02;101192.91;4919046;28;20322;-82
2023/04/30 09:47:38;;;;;;;13.75;12.35;;;;;;;19.98;60.42;101164.66;4919537;29;20387;-83
2023/04/30 09:50:05;;;;;;;13.27;11.93;;;;;;;20.16;59.63;101188.53;4922108;28;20047;-80
2023/04/30 09:52:32;;;;;;;12.27;11.05;;;;;;;19.99;60.42;101166.31;4910781;28;20116;-80
2023/04/30 09:55:04;;;;;;;16.13;12.38;;;;;;;20.00;60.00;101154.50;4942676;28;20160;-82
2023/04/30 09:57:35;;;;;;;11.93;10.75;;;;;;;20.10;60.21;101179.34;4947660;28;20046;-79
2023/04/30 10:00:02;;;;;;;11.82;10.73;;;;;;;20.25;60.14;101190.97;4941849;28;20047;-82
2023/04/30 10:02:29;;;;;;;12.77;11.48;;;;;;;20.35;59.92;101188.00;4918612;29;20529;-80
2023/04/30 10:04:57;;;;;;;14.43;11.73;;;;;;;20.08;60.34;101154.44;4922926;28;20057;-82
2023/04/30 10:07:35;;;;;;;13.65;12.27;;;;;;;20.05;60.65;101146.72;4932341;28;20055;-81
2023/04/30 10:10:07;;;;;;;14.18;12.68;;;;;;;20.02;60.23;101120.97;4931575;28;20328;-82
2023/04/30 10:13:09;;;;;;;;;;;;;;;20.43;60.08;101173.56;4922159;28;20113;-80
2023/04/30 10:15:42;;;;;;;;;;;;;;;20.32;60.75;101176.75;4882433;29;20115;-81
2023/04/30 10:18:27;;;;;;;14.82;13.32;;;;;;;20.05;60.18;101100.91;4938469;28;19923;-81
2023/04/30 10:20:55;;;;;;;14.82;13.13;;;;;;;19.41;59.99;100978.34;4944634;28;20121;-81
2023/04/30 10:23:26;;;;;;;15.93;14.38;;;;;;;20.62;60.21;101156.81;4957304;28;20061;-82
2023/04/30 10:25:55;;;;;;;17.67;15.35;;;;;;;20.64;60.15;101132.38;4943802;28;20366;-82
2023/04/30 10:28:24;;;;;;;16.60;14.82;;;;;;;20.12;59.51;100990.47;4928768;28;20128;-83
2023/04/30 10:30:54;;;;;;;20.08;16.00;;;;;;;20.74;58.65;101095.13;4941887;28;20059;-80
2023/04/30 10:33:53;;;;;;;17.27;15.57;;;;;;;20.56;58.94;101082.06;4950306;28;20104;-81
2023/04/30 10:37:01;;;;;;;16.73;14.10;;;;;;;21.02;57.79;101145.63;4945427;28;20489;-80
2023/04/30 10:39:38;;;;;;;16.35;14.77;;;;;;;20.70;57.96;101088.44;4932557;28;20051;-81
2023/04/30 10:42:08;;;;;;;15.70;14.13;;;;;;;20.71;58.49;101117.09;4960481;28;20053;-81
2023/04/30 10:44:36;;;;;;;15.60;14.20;;;;;;;20.83;58.80;101128.22;4953715;28;20554;-81
2023/04/30 10:47:11;;;;;;;15.48;14.15;;;;;;;20.33;58.67;101038.22;4938849;28;20066;-82
2023/04/30 10:49:46;;;;;;;15.32;13.93;;;;;;;20.16;58.90;101022.25;4949898;28;20047;-83
2023/04/30 10:52:33;;;;;;;18.02;14.77;;;;;;;20.67;59.36;101111.22;4949329;28;20145;-82
2023/04/30 10:55:06;;;;;;;15.07;13.57;;;;;;;20.91;58.66;101133.50;4942275;28;20050;-81
2023/04/30 10:57:42;;;;;;;16.40;14.63;;;;;;;20.82;57.68;101100.38;4948662;28;20047;-82
2023/04/30 11:00:09;;;;;;;14.38;12.45;;;;;;;20.90;58.25;101111.09;4951776;28;20199;-81
2023/04/30 11:02:48;;;;;;;16.23;14.60;;;;;;;21.03;58.28;101109.53;4937573;28;20058;-83
2023/04/30 11:05:17;;;;;;;17.17;15.68;;;;;;;20.85;58.56;101074.88;4926655;28;20129;-82
2023/04/30 11:07:56;;;;;;;18.65;14.55;;;;;;;20.91;58.69;101090.31;4932327;28;20051;-81
2023/04/30 11:10:25;;;;;;;15.77;14.23;;;;;;;20.44;59.08;101037.72;4956040;28;20050;-82
2023/04/30 11:12:55;;;;;;;14.23;12.82;;;;;;;20.84;58.82;101100.22;4951804;28;20477;-81
2023/04/30 11:15:32;;;;;;;16.55;12.55;;;;;;;20.90;58.96;101121.03;4965395;28;20452;-82
2023/04/30 11:17:59;;;;;;;14.00;10.52;;;;;;;20.83;58.46;101090.47;4954850;28;20057;-81
2023/04/30 11:20:27;;;;;;;11.40;9.18;;;;;;;21.00;58.31;101121.56;4945866;28;20526;-82
2023/04/30 11:23:13;;;;;;;10.93;8.85;;;;;;;20.67;58.19;101062.69;4953039;28;20497;-82
2023/04/30 11:25:53;;;;;;;11.73;8.57;;;;;;;21.22;57.47;101118.84;4947954;28;20072;-82
2023/04/30 11:28:27;;;;;;;8.20;7.40;;;;;;;21.26;56.84;101095.81;4955671;28;20336;-81